New Lancaster, Indiana
Current Conditions -  °F | °C
As of 7:15 PM on Wednesday 26 Nov 2014 (Local Time) from KOKK Reporting Station
Overcast Overcast  
Wind Chill: 21°   Ceiling: 1800
Heat Index: 27°   Visibility: 10mi
Dew Point: 19°   Wind: 5mph
Humidity: 74%   Direction: 80°E
Pressure: 30.08"   Gusts: NA
Location:  40.3067°N, 85.834°W
Report Text: KOKK 270015Z AUTO 08004KT 10SM OVC018 M03/M07 A3008 RMK AO1
Loading
Personal Weather Stations






























Interactive Weather Map New forecast layout! Learn more

10-Day Weather Forecast

Advertisements
Track Severe Weather on mobile